Terminal Aerodrome Forecast
Issued by NWS Anchorage, AK

Home | Current Version | Previous Version | Text Only | Print | Product List | Glossary On
Versions: 1 2 3 4 5 6 7 8 9 10 11 12 13 14 15 16 17 18 19 20 21 22 23 24 25 26 27 28 29 30 31 32 33 34
000
FTAK31 PANC 181125
TAFANC
TAF
PANC 181125Z 1812/1918 15008KT P6SM SCT040 OVC060
     FM182200 16010G18KT P6SM -SHRA SCT030 OVC050
     FM190100 16011KT 5SM -RA BKN030 OVC045
     FM190800 VRB03KT P6SM VCSH SCT030 OVC050=

USA.gov is the U.S. government's official web portal to all federal, state and local government web resources and services.